sensor_id;sensor_type;location;lat;lon;timestamp;P1;durP1;ratioP1;P2;durP2;ratioP2
78610;SDS011;67932;50.474;4.436;2023-02-27T00:01:26;2.72;;;1.20;;
78610;SDS011;67932;50.474;4.436;2023-02-27T00:03:53;5.45;;;1.33;;
78610;SDS011;67932;50.474;4.436;2023-02-27T00:06:19;3.17;;;1.48;;
78610;SDS011;67932;50.474;4.436;2023-02-27T00:11:11;4.05;;;1.45;;
78610;SDS011;67932;50.474;4.436;2023-02-27T00:16:04;3.25;;;1.38;;
78610;SDS011;67932;50.474;4.436;2023-02-27T00:18:30;1.98;;;1.23;;
78610;SDS011;67932;50.474;4.436;2023-02-27T00:23:22;1.90;;;0.88;;
78610;SDS011;67932;50.474;4.436;2023-02-27T00:25:48;3.15;;;1.50;;
78610;SDS011;67932;50.474;4.436;2023-02-27T00:28:15;1.73;;;1.17;;
78610;SDS011;67932;50.474;4.436;2023-02-27T00:33:07;3.75;;;1.35;;
78610;SDS011;67932;50.474;4.436;2023-02-27T00:37:59;2.72;;;1.25;;
78610;SDS011;67932;50.474;4.436;2023-02-27T00:40:25;1.70;;;1.13;;
78610;SDS011;67932;50.474;4.436;2023-02-27T00:45:17;1.70;;;1.02;;
78610;SDS011;67932;50.474;4.436;2023-02-27T00:47:46;3.70;;;1.15;;
78610;SDS011;67932;50.474;4.436;2023-02-27T00:50:12;3.13;;;0.88;;
78610;SDS011;67932;50.474;4.436;2023-02-27T00:55:04;3.47;;;1.23;;
78610;SDS011;67932;50.474;4.436;2023-02-27T00:57:31;4.05;;;1.08;;
78610;SDS011;67932;50.474;4.436;2023-02-27T00:59:57;1.85;;;0.90;;
78610;SDS011;67932;50.474;4.436;2023-02-27T01:04:49;2.25;;;0.88;;
78610;SDS011;67932;50.474;4.436;2023-02-27T01:09:41;2.03;;;0.73;;
78610;SDS011;67932;50.474;4.436;2023-02-27T01:12:07;3.97;;;1.15;;
78610;SDS011;67932;50.474;4.436;2023-02-27T01:14:34;2.92;;;0.98;;
78610;SDS011;67932;50.474;4.436;2023-02-27T01:17:00;2.42;;;1.15;;
78610;SDS011;67932;50.474;4.436;2023-02-27T01:19:26;2.30;;;1.10;;
78610;SDS011;67932;50.474;4.436;2023-02-27T01:24:18;2.40;;;0.98;;
78610;SDS011;67932;50.474;4.436;2023-02-27T01:26:44;2.05;;;0.90;;
78610;SDS011;67932;50.474;4.436;2023-02-27T01:29:11;3.58;;;0.90;;
78610;SDS011;67932;50.474;4.436;2023-02-27T01:31:37;4.20;;;1.15;;
78610;SDS011;67932;50.474;4.436;2023-02-27T01:36:29;2.30;;;1.00;;
78610;SDS011;67932;50.474;4.436;2023-02-27T01:41:21;2.58;;;1.08;;
78610;SDS011;67932;50.474;4.436;2023-02-27T01:46:13;6.72;;;1.00;;
78610;SDS011;67932;50.474;4.436;2023-02-27T01:51:06;1.50;;;0.85;;
78610;SDS011;67932;50.474;4.436;2023-02-27T01:53:34;2.10;;;1.30;;
78610;SDS011;67932;50.474;4.436;2023-02-27T01:56:03;5.97;;;1.42;;
78610;SDS011;67932;50.474;4.436;2023-02-27T01:58:30;2.25;;;1.10;;
78610;SDS011;67932;50.474;4.436;2023-02-27T02:00:56;3.03;;;1.17;;
78610;SDS011;67932;50.474;4.436;2023-02-27T02:05:48;4.35;;;0.82;;
78610;SDS011;67932;50.474;4.436;2023-02-27T02:08:17;3.95;;;1.40;;
78610;SDS011;67932;50.474;4.436;2023-02-27T02:10:44;5.57;;;1.38;;
78610;SDS011;67932;50.474;4.436;2023-02-27T02:13:11;2.28;;;1.05;;
78610;SDS011;67932;50.474;4.436;2023-02-27T02:20:42;3.67;;;1.17;;
78610;SDS011;67932;50.474;4.436;2023-02-27T02:26:16;2.28;;;1.05;;
78610;SDS011;67932;50.474;4.436;2023-02-27T02:50:17;2.78;;;1.10;;
78610;SDS011;67932;50.474;4.436;2023-02-27T03:00:14;2.28;;;1.25;;
78610;SDS011;67932;50.474;4.436;2023-02-27T03:02:43;2.05;;;1.13;;
78610;SDS011;67932;50.474;4.436;2023-02-27T03:05:19;2.05;;;1.10;;
78610;SDS011;67932;50.474;4.436;2023-02-27T03:07:49;3.60;;;1.10;;
78610;SDS011;67932;50.474;4.436;2023-02-27T03:10:20;2.40;;;1.00;;
78610;SDS011;67932;50.474;4.436;2023-02-27T03:12:50;2.40;;;1.30;;
78610;SDS011;67932;50.474;4.436;2023-02-27T03:15:18;4.13;;;1.50;;
78610;SDS011;67932;50.474;4.436;2023-02-27T03:20:21;3.00;;;1.25;;
78610;SDS011;67932;50.474;4.436;2023-02-27T03:22:49;4.15;;;1.33;;
78610;SDS011;67932;50.474;4.436;2023-02-27T03:25:16;3.13;;;1.45;;
78610;SDS011;67932;50.474;4.436;2023-02-27T03:32:45;2.05;;;1.20;;
78610;SDS011;67932;50.474;4.436;2023-02-27T03:35:13;2.10;;;0.88;;
78610;SDS011;67932;50.474;4.436;2023-02-27T03:40:48;4.50;;;1.00;;
78610;SDS011;67932;50.474;4.436;2023-02-27T03:46:05;7.50;;;1.35;;
78610;SDS011;67932;50.474;4.436;2023-02-27T03:48:28;3.13;;;1.38;;
78610;SDS011;67932;50.474;4.436;2023-02-27T03:50:55;3.25;;;1.30;;
78610;SDS011;67932;50.474;4.436;2023-02-27T03:53:27;1.83;;;1.30;;
78610;SDS011;67932;50.474;4.436;2023-02-27T03:55:55;2.08;;;1.30;;
78610;SDS011;67932;50.474;4.436;2023-02-27T03:58:22;2.47;;;1.05;;
78610;SDS011;67932;50.474;4.436;2023-02-27T04:00:49;2.25;;;1.10;;
78610;SDS011;67932;50.474;4.436;2023-02-27T04:05:41;6.05;;;1.20;;
78610;SDS011;67932;50.474;4.436;2023-02-27T04:13:24;2.10;;;1.20;;
78610;SDS011;67932;50.474;4.436;2023-02-27T04:18:58;2.65;;;1.67;;
78610;SDS011;67932;50.474;4.436;2023-02-27T04:21:51;4.25;;;1.73;;
78610;SDS011;67932;50.474;4.436;2023-02-27T04:27:03;3.22;;;1.73;;
78610;SDS011;67932;50.474;4.436;2023-02-27T04:29:52;5.63;;;2.10;;
78610;SDS011;67932;50.474;4.436;2023-02-27T04:32:30;3.13;;;2.00;;
78610;SDS011;67932;50.474;4.436;2023-02-27T04:35:04;4.57;;;1.63;;
78610;SDS011;67932;50.474;4.436;2023-02-27T04:37:45;3.70;;;1.80;;
78610;SDS011;67932;50.474;4.436;2023-02-27T04:40:14;3.85;;;1.70;;
78610;SDS011;67932;50.474;4.436;2023-02-27T04:42:43;2.90;;;1.67;;
78610;SDS011;67932;50.474;4.436;2023-02-27T04:45:11;4.32;;;1.60;;
78610;SDS011;67932;50.474;4.436;2023-02-27T04:50:44;5.55;;;2.15;;
78610;SDS011;67932;50.474;4.436;2023-02-27T04:53:17;5.65;;;1.90;;
78610;SDS011;67932;50.474;4.436;2023-02-27T04:55:45;3.60;;;2.30;;
78610;SDS011;67932;50.474;4.436;2023-02-27T04:58:13;4.63;;;2.10;;
78610;SDS011;67932;50.474;4.436;2023-02-27T05:00:42;2.85;;;1.95;;
78610;SDS011;67932;50.474;4.436;2023-02-27T05:03:20;6.97;;;2.17;;
78610;SDS011;67932;50.474;4.436;2023-02-27T05:05:47;5.28;;;2.30;;
78610;SDS011;67932;50.474;4.436;2023-02-27T05:08:19;2.88;;;2.17;;
78610;SDS011;67932;50.474;4.436;2023-02-27T05:10:50;5.85;;;2.17;;
78610;SDS011;67932;50.474;4.436;2023-02-27T05:13:22;8.15;;;2.53;;
78610;SDS011;67932;50.474;4.436;2023-02-27T05:18:36;4.68;;;1.92;;
78610;SDS011;67932;50.474;4.436;2023-02-27T05:23:31;4.47;;;2.20;;
78610;SDS011;67932;50.474;4.436;2023-02-27T05:26:02;5.25;;;2.10;;
78610;SDS011;67932;50.474;4.436;2023-02-27T05:28:33;2.58;;;1.70;;
78610;SDS011;67932;50.474;4.436;2023-02-27T05:31:14;5.07;;;2.30;;
78610;SDS011;67932;50.474;4.436;2023-02-27T05:36:30;3.95;;;2.05;;
78610;SDS011;67932;50.474;4.436;2023-02-27T05:38:59;3.10;;;1.90;;
78610;SDS011;67932;50.474;4.436;2023-02-27T05:41:29;3.33;;;2.40;;
78610;SDS011;67932;50.474;4.436;2023-02-27T05:43:57;2.72;;;1.85;;
78610;SDS011;67932;50.474;4.436;2023-02-27T05:46:30;7.32;;;2.60;;
78610;SDS011;67932;50.474;4.436;2023-02-27T05:48:58;3.33;;;1.90;;
78610;SDS011;67932;50.474;4.436;2023-02-27T05:51:26;5.65;;;2.63;;
78610;SDS011;67932;50.474;4.436;2023-02-27T05:53:56;6.18;;;2.60;;
78610;SDS011;67932;50.474;4.436;2023-02-27T05:56:25;7.35;;;2.92;;
78610;SDS011;67932;50.474;4.436;2023-02-27T06:01:53;3.80;;;2.08;;
78610;SDS011;67932;50.474;4.436;2023-02-27T06:04:19;2.72;;;1.77;;
78610;SDS011;67932;50.474;4.436;2023-02-27T06:06:45;3.53;;;2.15;;
78610;SDS011;67932;50.474;4.436;2023-02-27T06:09:12;3.60;;;2.28;;
78610;SDS011;67932;50.474;4.436;2023-02-27T06:11:40;8.40;;;2.10;;
78610;SDS011;67932;50.474;4.436;2023-02-27T06:14:06;5.93;;;2.88;;
78610;SDS011;67932;50.474;4.436;2023-02-27T06:16:32;10.32;;;2.50;;
78610;SDS011;67932;50.474;4.436;2023-02-27T06:19:02;5.38;;;2.60;;
78610;SDS011;67932;50.474;4.436;2023-02-27T06:21:28;8.05;;;2.42;;
78610;SDS011;67932;50.474;4.436;2023-02-27T06:23:54;4.25;;;2.40;;
78610;SDS011;67932;50.474;4.436;2023-02-27T06:26:20;7.43;;;2.85;;
78610;SDS011;67932;50.474;4.436;2023-02-27T06:28:46;2.92;;;2.28;;
78610;SDS011;67932;50.474;4.436;2023-02-27T06:31:12;6.03;;;2.53;;
78610;SDS011;67932;50.474;4.436;2023-02-27T06:33:39;7.72;;;2.85;;
78610;SDS011;67932;50.474;4.436;2023-02-27T06:36:05;5.95;;;3.10;;
78610;SDS011;67932;50.474;4.436;2023-02-27T06:38:31;7.82;;;2.90;;
78610;SDS011;67932;50.474;4.436;2023-02-27T06:40:58;6.13;;;2.95;;
78610;SDS011;67932;50.474;4.436;2023-02-27T06:43:24;4.95;;;2.88;;
78610;SDS011;67932;50.474;4.436;2023-02-27T06:45:53;8.27;;;3.20;;
78610;SDS011;67932;50.474;4.436;2023-02-27T06:48:19;7.78;;;3.15;;
78610;SDS011;67932;50.474;4.436;2023-02-27T06:50:49;5.63;;;3.70;;
78610;SDS011;67932;50.474;4.436;2023-02-27T06:53:15;6.13;;;3.28;;
78610;SDS011;67932;50.474;4.436;2023-02-27T06:55:41;5.50;;;3.20;;
78610;SDS011;67932;50.474;4.436;2023-02-27T06:58:07;4.30;;;3.30;;
78610;SDS011;67932;50.474;4.436;2023-02-27T07:00:33;7.50;;;3.70;;
78610;SDS011;67932;50.474;4.436;2023-02-27T07:02:59;5.80;;;3.10;;
78610;SDS011;67932;50.474;4.436;2023-02-27T07:05:28;7.65;;;3.70;;
78610;SDS011;67932;50.474;4.436;2023-02-27T07:07:54;8.63;;;3.47;;
78610;SDS011;67932;50.474;4.436;2023-02-27T07:12:46;6.10;;;3.33;;
78610;SDS011;67932;50.474;4.436;2023-02-27T07:15:12;6.57;;;3.42;;
78610;SDS011;67932;50.474;4.436;2023-02-27T07:17:38;7.90;;;3.20;;
78610;SDS011;67932;50.474;4.436;2023-02-27T07:20:08;7.35;;;3.67;;
78610;SDS011;67932;50.474;4.436;2023-02-27T07:22:35;5.28;;;3.42;;
78610;SDS011;67932;50.474;4.436;2023-02-27T07:25:01;9.02;;;3.72;;
78610;SDS011;67932;50.474;4.436;2023-02-27T07:27:27;5.15;;;3.15;;
78610;SDS011;67932;50.474;4.436;2023-02-27T07:29:53;6.70;;;3.13;;
78610;SDS011;67932;50.474;4.436;2023-02-27T07:32:19;6.75;;;3.33;;
78610;SDS011;67932;50.474;4.436;2023-02-27T07:34:45;5.80;;;3.55;;
78610;SDS011;67932;50.474;4.436;2023-02-27T07:37:12;5.43;;;3.20;;
78610;SDS011;67932;50.474;4.436;2023-02-27T07:39:38;4.95;;;3.28;;
78610;SDS011;67932;50.474;4.436;2023-02-27T07:42:04;7.22;;;3.35;;
78610;SDS011;67932;50.474;4.436;2023-02-27T07:44:30;7.60;;;3.65;;
78610;SDS011;67932;50.474;4.436;2023-02-27T07:46:57;5.15;;;3.50;;
78610;SDS011;67932;50.474;4.436;2023-02-27T07:51:49;6.13;;;2.90;;
78610;SDS011;67932;50.474;4.436;2023-02-27T07:54:15;4.68;;;3.22;;
78610;SDS011;67932;50.474;4.436;2023-02-27T07:56:41;7.53;;;4.13;;
78610;SDS011;67932;50.474;4.436;2023-02-27T07:59:07;5.82;;;3.15;;
78610;SDS011;67932;50.474;4.436;2023-02-27T08:04:02;6.50;;;3.38;;
78610;SDS011;67932;50.474;4.436;2023-02-27T08:06:28;4.82;;;3.67;;
78610;SDS011;67932;50.474;4.436;2023-02-27T08:11:20;7.03;;;3.28;;
78610;SDS011;67932;50.474;4.436;2023-02-27T08:16:14;8.32;;;3.50;;
78610;SDS011;67932;50.474;4.436;2023-02-27T08:18:40;7.40;;;3.85;;
78610;SDS011;67932;50.474;4.436;2023-02-27T08:21:06;7.25;;;4.07;;
78610;SDS011;67932;50.474;4.436;2023-02-27T08:23:32;5.28;;;4.15;;
78610;SDS011;67932;50.474;4.436;2023-02-27T08:25:59;5.70;;;3.95;;
78610;SDS011;67932;50.474;4.436;2023-02-27T08:28:25;5.22;;;3.78;;
78610;SDS011;67932;50.474;4.436;2023-02-27T08:30:52;6.55;;;3.90;;
78610;SDS011;67932;50.474;4.436;2023-02-27T08:33:19;7.72;;;4.55;;
78610;SDS011;67932;50.474;4.436;2023-02-27T08:35:45;7.65;;;4.25;;
78610;SDS011;67932;50.474;4.436;2023-02-27T08:40:37;9.30;;;3.85;;
78610;SDS011;67932;50.474;4.436;2023-02-27T08:43:03;7.93;;;4.60;;
78610;SDS011;67932;50.474;4.436;2023-02-27T08:47:55;4.75;;;2.92;;
78610;SDS011;67932;50.474;4.436;2023-02-27T08:52:47;8.15;;;3.53;;
78610;SDS011;67932;50.474;4.436;2023-02-27T08:55:13;4.25;;;3.22;;
78610;SDS011;67932;50.474;4.436;2023-02-27T08:57:39;7.70;;;3.88;;
78610;SDS011;67932;50.474;4.436;2023-02-27T09:02:32;5.50;;;3.70;;
78610;SDS011;67932;50.474;4.436;2023-02-27T09:04:58;8.30;;;3.67;;
78610;SDS011;67932;50.474;4.436;2023-02-27T09:07:25;7.18;;;3.58;;
78610;SDS011;67932;50.474;4.436;2023-02-27T09:09:52;8.90;;;4.18;;
78610;SDS011;67932;50.474;4.436;2023-02-27T09:12:18;9.18;;;3.60;;
78610;SDS011;67932;50.474;4.436;2023-02-27T09:17:10;6.88;;;3.67;;
78610;SDS011;67932;50.474;4.436;2023-02-27T09:22:02;5.18;;;3.30;;
78610;SDS011;67932;50.474;4.436;2023-02-27T09:24:29;11.63;;;3.55;;
78610;SDS011;67932;50.474;4.436;2023-02-27T09:29:21;5.50;;;3.45;;
78610;SDS011;67932;50.474;4.436;2023-02-27T09:31:48;4.45;;;3.20;;
78610;SDS011;67932;50.474;4.436;2023-02-27T09:34:14;5.20;;;3.35;;
78610;SDS011;67932;50.474;4.436;2023-02-27T09:36:40;6.13;;;3.00;;
78610;SDS011;67932;50.474;4.436;2023-02-27T09:39:06;4.38;;;3.13;;
78610;SDS011;67932;50.474;4.436;2023-02-27T09:46:51;5.70;;;2.80;;
78610;SDS011;67932;50.474;4.436;2023-02-27T09:49:18;5.85;;;3.58;;
78610;SDS011;67932;50.474;4.436;2023-02-27T09:51:45;7.72;;;3.33;;
78610;SDS011;67932;50.474;4.436;2023-02-27T09:54:11;8.52;;;3.00;;
78610;SDS011;67932;50.474;4.436;2023-02-27T09:56:41;8.00;;;2.60;;
78610;SDS011;67932;50.474;4.436;2023-02-27T09:59:13;4.82;;;2.58;;
78610;SDS011;67932;50.474;4.436;2023-02-27T10:06:39;3.45;;;2.50;;
78610;SDS011;67932;50.474;4.436;2023-02-27T10:11:56;3.72;;;2.03;;
78610;SDS011;67932;50.474;4.436;2023-02-27T10:19:17;4.50;;;2.05;;
78610;SDS011;67932;50.474;4.436;2023-02-27T10:21:49;3.28;;;2.20;;
78610;SDS011;67932;50.474;4.436;2023-02-27T10:26:48;4.10;;;2.22;;
78610;SDS011;67932;50.474;4.436;2023-02-27T10:29:24;4.22;;;2.35;;
78610;SDS011;67932;50.474;4.436;2023-02-27T10:31:56;4.90;;;2.20;;
78610;SDS011;67932;50.474;4.436;2023-02-27T10:34:24;4.25;;;2.00;;
78610;SDS011;67932;50.474;4.436;2023-02-27T10:36:51;4.10;;;1.98;;
78610;SDS011;67932;50.474;4.436;2023-02-27T10:39:18;1.75;;;1.52;;
78610;SDS011;67932;50.474;4.436;2023-02-27T10:41:44;5.35;;;2.15;;
78610;SDS011;67932;50.474;4.436;2023-02-27T10:44:15;3.30;;;1.58;;
78610;SDS011;67932;50.474;4.436;2023-02-27T10:46:42;2.00;;;1.10;;
78610;SDS011;67932;50.474;4.436;2023-02-27T10:49:16;5.85;;;1.77;;
78610;SDS011;67932;50.474;4.436;2023-02-27T10:51:42;2.55;;;1.45;;
78610;SDS011;67932;50.474;4.436;2023-02-27T10:54:17;2.72;;;1.45;;
78610;SDS011;67932;50.474;4.436;2023-02-27T10:56:46;2.42;;;1.63;;
78610;SDS011;67932;50.474;4.436;2023-02-27T10:59:22;4.97;;;1.52;;
78610;SDS011;67932;50.474;4.436;2023-02-27T11:04:23;3.03;;;1.52;;
78610;SDS011;67932;50.474;4.436;2023-02-27T11:06:52;2.75;;;1.60;;
78610;SDS011;67932;50.474;4.436;2023-02-27T11:09:23;9.90;;;2.38;;
78610;SDS011;67932;50.474;4.436;2023-02-27T11:11:50;7.63;;;1.65;;
78610;SDS011;67932;50.474;4.436;2023-02-27T11:16:50;4.00;;;1.48;;
78610;SDS011;67932;50.474;4.436;2023-02-27T11:19:50;3.30;;;1.80;;
78610;SDS011;67932;50.474;4.436;2023-02-27T11:22:13;3.20;;;1.70;;
78610;SDS011;67932;50.474;4.436;2023-02-27T11:24:40;4.53;;;1.75;;
78610;SDS011;67932;50.474;4.436;2023-02-27T11:30:00;2.50;;;1.30;;
78610;SDS011;67932;50.474;4.436;2023-02-27T11:32:41;2.30;;;1.70;;
78610;SDS011;67932;50.474;4.436;2023-02-27T11:37:47;2.85;;;1.60;;
78610;SDS011;67932;50.474;4.436;2023-02-27T11:40:14;2.15;;;1.30;;
78610;SDS011;67932;50.474;4.436;2023-02-27T11:42:44;2.53;;;1.05;;
78610;SDS011;67932;50.474;4.436;2023-02-27T11:50:47;2.13;;;1.00;;
78610;SDS011;67932;50.474;4.436;2023-02-27T11:56:02;2.55;;;1.20;;
78610;SDS011;67932;50.474;4.436;2023-02-27T11:58:32;5.22;;;1.40;;
78610;SDS011;67932;50.474;4.436;2023-02-27T12:01:06;5.28;;;1.65;;
78610;SDS011;67932;50.474;4.436;2023-02-27T12:06:13;3.15;;;1.30;;
78610;SDS011;67932;50.474;4.436;2023-02-27T12:08:49;2.42;;;1.40;;
78610;SDS011;67932;50.474;4.436;2023-02-27T12:13:53;2.45;;;1.38;;
78610;SDS011;67932;50.474;4.436;2023-02-27T12:16:27;3.63;;;1.75;;
78610;SDS011;67932;50.474;4.436;2023-02-27T12:18:56;3.33;;;1.13;;
78610;SDS011;67932;50.474;4.436;2023-02-27T12:21:28;4.72;;;1.83;;
78610;SDS011;67932;50.474;4.436;2023-02-27T12:26:29;3.90;;;1.10;;
78610;SDS011;67932;50.474;4.436;2023-02-27T12:28:59;3.10;;;1.20;;
78610;SDS011;67932;50.474;4.436;2023-02-27T12:34:01;2.38;;;1.00;;
78610;SDS011;67932;50.474;4.436;2023-02-27T12:36:29;1.60;;;0.88;;
78610;SDS011;67932;50.474;4.436;2023-02-27T12:38:55;2.58;;;1.20;;
78610;SDS011;67932;50.474;4.436;2023-02-27T12:46:58;3.55;;;1.13;;
78610;SDS011;67932;50.474;4.436;2023-02-27T12:52:09;2.10;;;0.98;;
78610;SDS011;67932;50.474;4.436;2023-02-27T12:54:41;3.10;;;1.40;;
78610;SDS011;67932;50.474;4.436;2023-02-27T13:02:37;5.60;;;1.13;;
78610;SDS011;67932;50.474;4.436;2023-02-27T13:07:32;2.95;;;1.23;;
78610;SDS011;67932;50.474;4.436;2023-02-27T13:13:05;3.20;;;1.75;;
78610;SDS011;67932;50.474;4.436;2023-02-27T13:15:35;2.75;;;1.10;;
78610;SDS011;67932;50.474;4.436;2023-02-27T13:20:55;2.83;;;1.73;;
78610;SDS011;67932;50.474;4.436;2023-02-27T13:25:48;3.58;;;1.65;;
78610;SDS011;67932;50.474;4.436;2023-02-27T13:28:19;3.47;;;1.20;;
78610;SDS011;67932;50.474;4.436;2023-02-27T13:30:51;1.98;;;1.10;;
78610;SDS011;67932;50.474;4.436;2023-02-27T13:35:57;2.58;;;1.80;;
78610;SDS011;67932;50.474;4.436;2023-02-27T13:40:53;3.28;;;1.50;;
78610;SDS011;67932;50.474;4.436;2023-02-27T13:43:28;2.92;;;1.52;;
78610;SDS011;67932;50.474;4.436;2023-02-27T13:46:00;4.10;;;1.58;;
78610;SDS011;67932;50.474;4.436;2023-02-27T13:50:59;1.88;;;1.48;;
78610;SDS011;67932;50.474;4.436;2023-02-27T13:53:25;2.75;;;1.83;;
78610;SDS011;67932;50.474;4.436;2023-02-27T13:58:37;6.90;;;2.05;;
78610;SDS011;67932;50.474;4.436;2023-02-27T14:01:03;2.55;;;1.55;;
78610;SDS011;67932;50.474;4.436;2023-02-27T14:03:29;3.65;;;2.60;;
78610;SDS011;67932;50.474;4.436;2023-02-27T14:05:57;10.75;;;2.28;;
78610;SDS011;67932;50.474;4.436;2023-02-27T14:08:24;2.22;;;1.42;;
78610;SDS011;67932;50.474;4.436;2023-02-27T14:10:55;3.90;;;1.70;;
78610;SDS011;67932;50.474;4.436;2023-02-27T14:16:07;2.67;;;1.63;;
78610;SDS011;67932;50.474;4.436;2023-02-27T14:24:26;3.88;;;2.53;;
78610;SDS011;67932;50.474;4.436;2023-02-27T14:26:53;2.33;;;2.13;;
78610;SDS011;67932;50.474;4.436;2023-02-27T14:29:21;3.70;;;2.20;;
78610;SDS011;67932;50.474;4.436;2023-02-27T14:31:47;3.97;;;2.20;;
78610;SDS011;67932;50.474;4.436;2023-02-27T14:34:14;3.72;;;2.35;;
78610;SDS011;67932;50.474;4.436;2023-02-27T14:36:42;2.80;;;2.22;;
78610;SDS011;67932;50.474;4.436;2023-02-27T14:39:25;4.60;;;2.33;;
78610;SDS011;67932;50.474;4.436;2023-02-27T14:44:37;3.15;;;2.40;;
78610;SDS011;67932;50.474;4.436;2023-02-27T14:47:04;4.65;;;2.35;;
78610;SDS011;67932;50.474;4.436;2023-02-27T14:49:31;2.42;;;2.22;;
78610;SDS011;67932;50.474;4.436;2023-02-27T14:55:32;6.38;;;2.65;;
78610;SDS011;67932;50.474;4.436;2023-02-27T15:02:56;4.15;;;3.13;;
78610;SDS011;67932;50.474;4.436;2023-02-27T15:05:24;5.88;;;3.25;;
78610;SDS011;67932;50.474;4.436;2023-02-27T15:07:52;5.75;;;3.70;;
78610;SDS011;67932;50.474;4.436;2023-02-27T15:10:21;4.95;;;3.58;;
78610;SDS011;67932;50.474;4.436;2023-02-27T15:12:49;4.95;;;3.53;;
78610;SDS011;67932;50.474;4.436;2023-02-27T15:15:17;4.60;;;3.60;;
78610;SDS011;67932;50.474;4.436;2023-02-27T15:17:43;3.58;;;3.22;;
78610;SDS011;67932;50.474;4.436;2023-02-27T15:20:26;5.22;;;3.22;;
78610;SDS011;67932;50.474;4.436;2023-02-27T15:22:57;5.07;;;3.03;;
78610;SDS011;67932;50.474;4.436;2023-02-27T15:27:54;3.58;;;2.70;;
78610;SDS011;67932;50.474;4.436;2023-02-27T15:30:21;4.55;;;2.60;;
78610;SDS011;67932;50.474;4.436;2023-02-27T15:32:47;2.33;;;1.90;;
78610;SDS011;67932;50.474;4.436;2023-02-27T15:35:24;3.15;;;2.65;;
78610;SDS011;67932;50.474;4.436;2023-02-27T15:37:53;4.32;;;2.88;;
78610;SDS011;67932;50.474;4.436;2023-02-27T15:40:25;4.45;;;2.63;;
78610;SDS011;67932;50.474;4.436;2023-02-27T15:42:51;3.38;;;1.70;;
78610;SDS011;67932;50.474;4.436;2023-02-27T15:45:19;3.47;;;1.80;;
78610;SDS011;67932;50.474;4.436;2023-02-27T15:47:45;4.43;;;2.25;;
78610;SDS011;67932;50.474;4.436;2023-02-27T15:55:20;5.38;;;2.28;;
78610;SDS011;67932;50.474;4.436;2023-02-27T15:57:48;2.30;;;1.70;;
78610;SDS011;67932;50.474;4.436;2023-02-27T16:00:17;2.75;;;1.60;;
78610;SDS011;67932;50.474;4.436;2023-02-27T16:02:44;2.10;;;1.50;;
78610;SDS011;67932;50.474;4.436;2023-02-27T16:05:19;3.42;;;1.50;;
78610;SDS011;67932;50.474;4.436;2023-02-27T16:07:45;4.15;;;1.58;;
78610;SDS011;67932;50.474;4.436;2023-02-27T16:10:22;3.15;;;1.77;;
78610;SDS011;67932;50.474;4.436;2023-02-27T16:12:48;2.47;;;1.80;;
78610;SDS011;67932;50.474;4.436;2023-02-27T16:15:33;2.55;;;1.65;;
78610;SDS011;67932;50.474;4.436;2023-02-27T16:18:02;4.28;;;1.42;;
78610;SDS011;67932;50.474;4.436;2023-02-27T16:20:36;3.28;;;1.40;;
78610;SDS011;67932;50.474;4.436;2023-02-27T16:25:28;2.95;;;1.83;;
78610;SDS011;67932;50.474;4.436;2023-02-27T16:27:54;3.63;;;1.80;;
78610;SDS011;67932;50.474;4.436;2023-02-27T16:30:21;2.45;;;1.58;;
78610;SDS011;67932;50.474;4.436;2023-02-27T16:32:47;2.78;;;1.95;;
78610;SDS011;67932;50.474;4.436;2023-02-27T16:35:20;3.75;;;1.80;;
78610;SDS011;67932;50.474;4.436;2023-02-27T16:37:47;2.50;;;1.73;;
78610;SDS011;67932;50.474;4.436;2023-02-27T16:40:18;6.15;;;2.60;;
78610;SDS011;67932;50.474;4.436;2023-02-27T16:42:44;2.65;;;1.90;;
78610;SDS011;67932;50.474;4.436;2023-02-27T16:45:16;2.47;;;2.22;;
78610;SDS011;67932;50.474;4.436;2023-02-27T16:47:42;2.58;;;1.73;;
78610;SDS011;67932;50.474;4.436;2023-02-27T16:50:10;3.08;;;1.80;;
78610;SDS011;67932;50.474;4.436;2023-02-27T16:52:37;2.78;;;1.67;;
78610;SDS011;67932;50.474;4.436;2023-02-27T16:55:03;4.03;;;1.73;;
78610;SDS011;67932;50.474;4.436;2023-02-27T16:57:29;4.47;;;1.88;;
78610;SDS011;67932;50.474;4.436;2023-02-27T16:59:55;2.92;;;1.50;;
78610;SDS011;67932;50.474;4.436;2023-02-27T17:02:22;2.13;;;1.55;;
78610;SDS011;67932;50.474;4.436;2023-02-27T17:04:48;2.88;;;1.60;;
78610;SDS011;67932;50.474;4.436;2023-02-27T17:07:16;4.65;;;1.70;;
78610;SDS011;67932;50.474;4.436;2023-02-27T17:09:43;3.78;;;2.13;;
78610;SDS011;67932;50.474;4.436;2023-02-27T17:12:09;2.58;;;1.75;;
78610;SDS011;67932;50.474;4.436;2023-02-27T17:14:36;4.38;;;2.13;;
78610;SDS011;67932;50.474;4.436;2023-02-27T17:17:02;2.22;;;1.85;;
78610;SDS011;67932;50.474;4.436;2023-02-27T17:19:28;4.88;;;2.05;;
78610;SDS011;67932;50.474;4.436;2023-02-27T17:21:54;3.17;;;2.10;;
78610;SDS011;67932;50.474;4.436;2023-02-27T17:24:20;4.07;;;2.28;;
78610;SDS011;67932;50.474;4.436;2023-02-27T17:26:46;3.45;;;2.03;;
78610;SDS011;67932;50.474;4.436;2023-02-27T17:29:12;4.88;;;2.03;;
78610;SDS011;67932;50.474;4.436;2023-02-27T17:31:39;5.20;;;1.92;;
78610;SDS011;67932;50.474;4.436;2023-02-27T17:34:06;2.90;;;2.05;;
78610;SDS011;67932;50.474;4.436;2023-02-27T17:36:35;2.97;;;1.88;;
78610;SDS011;67932;50.474;4.436;2023-02-27T17:39:01;4.50;;;1.83;;
78610;SDS011;67932;50.474;4.436;2023-02-27T17:41:29;4.43;;;1.90;;
78610;SDS011;67932;50.474;4.436;2023-02-27T17:43:55;3.00;;;2.13;;
78610;SDS011;67932;50.474;4.436;2023-02-27T17:46:22;3.80;;;2.08;;
78610;SDS011;67932;50.474;4.436;2023-02-27T17:48:49;4.40;;;2.05;;
78610;SDS011;67932;50.474;4.436;2023-02-27T17:51:16;4.53;;;2.28;;
78610;SDS011;67932;50.474;4.436;2023-02-27T17:53:43;2.97;;;2.03;;
78610;SDS011;67932;50.474;4.436;2023-02-27T17:56:09;7.85;;;2.60;;
78610;SDS011;67932;50.474;4.436;2023-02-27T17:58:36;3.58;;;2.45;;
78610;SDS011;67932;50.474;4.436;2023-02-27T18:01:09;3.88;;;2.30;;
78610;SDS011;67932;50.474;4.436;2023-02-27T18:03:35;4.10;;;2.67;;
78610;SDS011;67932;50.474;4.436;2023-02-27T18:06:02;3.33;;;2.53;;
78610;SDS011;67932;50.474;4.436;2023-02-27T18:08:28;4.47;;;2.40;;
78610;SDS011;67932;50.474;4.436;2023-02-27T18:10:55;4.72;;;3.22;;
78610;SDS011;67932;50.474;4.436;2023-02-27T18:13:22;3.55;;;2.30;;
78610;SDS011;67932;50.474;4.436;2023-02-27T18:15:50;7.78;;;2.90;;
78610;SDS011;67932;50.474;4.436;2023-02-27T18:18:16;6.68;;;3.63;;
78610;SDS011;67932;50.474;4.436;2023-02-27T18:20:43;4.53;;;2.72;;
78610;SDS011;67932;50.474;4.436;2023-02-27T18:23:09;3.85;;;2.58;;
78610;SDS011;67932;50.474;4.436;2023-02-27T18:25:35;5.50;;;2.45;;
78610;SDS011;67932;50.474;4.436;2023-02-27T18:28:01;4.85;;;2.63;;
78610;SDS011;67932;50.474;4.436;2023-02-27T18:30:28;4.43;;;2.33;;
78610;SDS011;67932;50.474;4.436;2023-02-27T18:32:55;5.22;;;2.40;;
78610;SDS011;67932;50.474;4.436;2023-02-27T18:35:21;5.20;;;2.40;;
78610;SDS011;67932;50.474;4.436;2023-02-27T18:37:47;3.78;;;2.30;;
78610;SDS011;67932;50.474;4.436;2023-02-27T18:40:13;4.13;;;2.42;;
78610;SDS011;67932;50.474;4.436;2023-02-27T18:42:40;7.78;;;3.13;;
78610;SDS011;67932;50.474;4.436;2023-02-27T18:45:06;5.32;;;2.15;;
78610;SDS011;67932;50.474;4.436;2023-02-27T18:47:33;5.45;;;2.58;;
78610;SDS011;67932;50.474;4.436;2023-02-27T18:49:59;7.35;;;2.72;;
78610;SDS011;67932;50.474;4.436;2023-02-27T18:52:25;3.40;;;2.40;;
78610;SDS011;67932;50.474;4.436;2023-02-27T18:54:52;4.85;;;2.63;;
78610;SDS011;67932;50.474;4.436;2023-02-27T18:57:19;6.60;;;2.78;;
78610;SDS011;67932;50.474;4.436;2023-02-27T18:59:45;5.07;;;2.50;;
78610;SDS011;67932;50.474;4.436;2023-02-27T19:02:15;2.90;;;2.20;;
78610;SDS011;67932;50.474;4.436;2023-02-27T19:04:43;3.70;;;2.28;;
78610;SDS011;67932;50.474;4.436;2023-02-27T19:07:10;3.28;;;2.47;;
78610;SDS011;67932;50.474;4.436;2023-02-27T19:09:36;7.22;;;2.20;;
78610;SDS011;67932;50.474;4.436;2023-02-27T19:12:02;6.13;;;2.67;;